sensor_id;sensor_type;location;lat;lon;timestamp;P1;durP1;ratioP1;P2;durP2;ratioP2
41984;SDS011;28319;48.116;10.818;2022-11-14T00:03:56;3.97;;;3.63;;
41984;SDS011;28319;48.116;10.818;2022-11-14T00:08:59;3.30;;;3.00;;
41984;SDS011;28319;48.116;10.818;2022-11-14T00:14:01;5.53;;;3.67;;
41984;SDS011;28319;48.116;10.818;2022-11-14T00:19:04;8.13;;;3.50;;
41984;SDS011;28319;48.116;10.818;2022-11-14T00:24:06;3.27;;;2.97;;
41984;SDS011;28319;48.116;10.818;2022-11-14T00:29:09;3.40;;;3.10;;
41984;SDS011;28319;48.116;10.818;2022-11-14T00:34:12;3.10;;;2.90;;
41984;SDS011;28319;48.116;10.818;2022-11-14T00:39:15;2.73;;;2.53;;
41984;SDS011;28319;48.116;10.818;2022-11-14T00:44:17;5.77;;;4.33;;
41984;SDS011;28319;48.116;10.818;2022-11-14T00:49:20;3.67;;;3.27;;
41984;SDS011;28319;48.116;10.818;2022-11-14T00:54:22;3.63;;;2.80;;
41984;SDS011;28319;48.116;10.818;2022-11-14T00:59:25;9.53;;;3.57;;
41984;SDS011;28319;48.116;10.818;2022-11-14T01:04:29;9.07;;;3.20;;
41984;SDS011;28319;48.116;10.818;2022-11-14T01:09:31;3.03;;;2.83;;
41984;SDS011;28319;48.116;10.818;2022-11-14T01:14:33;6.60;;;3.43;;
41984;SDS011;28319;48.116;10.818;2022-11-14T01:19:36;7.67;;;3.13;;
41984;SDS011;28319;48.116;10.818;2022-11-14T01:24:38;5.03;;;3.13;;
41984;SDS011;28319;48.116;10.818;2022-11-14T01:29:40;4.90;;;3.10;;
41984;SDS011;28319;48.116;10.818;2022-11-14T01:34:44;2.70;;;2.50;;
41984;SDS011;28319;48.116;10.818;2022-11-14T01:39:46;3.30;;;3.10;;
41984;SDS011;28319;48.116;10.818;2022-11-14T01:44:49;4.37;;;2.93;;
41984;SDS011;28319;48.116;10.818;2022-11-14T01:49:54;3.20;;;2.90;;
41984;SDS011;28319;48.116;10.818;2022-11-14T01:54:59;6.10;;;3.97;;
41984;SDS011;28319;48.116;10.818;2022-11-14T02:00:06;11.43;;;3.73;;
41984;SDS011;28319;48.116;10.818;2022-11-14T02:05:11;3.07;;;2.83;;
41984;SDS011;28319;48.116;10.818;2022-11-14T02:10:17;2.63;;;2.50;;
41984;SDS011;28319;48.116;10.818;2022-11-14T02:15:20;3.30;;;3.00;;
41984;SDS011;28319;48.116;10.818;2022-11-14T02:20:26;2.87;;;2.67;;
41984;SDS011;28319;48.116;10.818;2022-11-14T02:25:32;3.97;;;3.30;;
41984;SDS011;28319;48.116;10.818;2022-11-14T02:30:34;5.77;;;3.33;;
41984;SDS011;28319;48.116;10.818;2022-11-14T02:35:37;3.00;;;2.80;;
41984;SDS011;28319;48.116;10.818;2022-11-14T02:40:39;2.47;;;2.37;;
41984;SDS011;28319;48.116;10.818;2022-11-14T02:45:41;2.83;;;2.57;;
41984;SDS011;28319;48.116;10.818;2022-11-14T02:50:46;2.60;;;2.40;;
41984;SDS011;28319;48.116;10.818;2022-11-14T02:55:49;2.27;;;2.17;;
41984;SDS011;28319;48.116;10.818;2022-11-14T03:00:51;2.70;;;2.50;;
41984;SDS011;28319;48.116;10.818;2022-11-14T03:05:58;2.53;;;2.40;;
41984;SDS011;28319;48.116;10.818;2022-11-14T03:11:02;2.30;;;2.20;;
41984;SDS011;28319;48.116;10.818;2022-11-14T03:16:05;2.40;;;2.20;;
41984;SDS011;28319;48.116;10.818;2022-11-14T03:21:10;2.67;;;2.47;;
41984;SDS011;28319;48.116;10.818;2022-11-14T03:26:14;2.50;;;2.30;;
41984;SDS011;28319;48.116;10.818;2022-11-14T03:31:16;2.37;;;2.27;;
41984;SDS011;28319;48.116;10.818;2022-11-14T03:36:19;2.43;;;2.23;;
41984;SDS011;28319;48.116;10.818;2022-11-14T03:41:21;2.10;;;2.00;;
41984;SDS011;28319;48.116;10.818;2022-11-14T03:46:23;2.57;;;2.37;;
41984;SDS011;28319;48.116;10.818;2022-11-14T03:51:27;2.57;;;2.37;;
41984;SDS011;28319;48.116;10.818;2022-11-14T03:56:29;2.33;;;2.23;;
41984;SDS011;28319;48.116;10.818;2022-11-14T04:01:31;2.10;;;2.00;;
41984;SDS011;28319;48.116;10.818;2022-11-14T04:06:35;2.20;;;2.10;;
41984;SDS011;28319;48.116;10.818;2022-11-14T04:11:37;2.00;;;1.90;;
41984;SDS011;28319;48.116;10.818;2022-11-14T04:16:39;2.43;;;2.23;;
41984;SDS011;28319;48.116;10.818;2022-11-14T04:21:42;2.70;;;2.50;;
41984;SDS011;28319;48.116;10.818;2022-11-14T04:26:44;2.23;;;2.13;;
41984;SDS011;28319;48.116;10.818;2022-11-14T04:31:46;2.07;;;1.97;;
41984;SDS011;28319;48.116;10.818;2022-11-14T04:36:50;2.50;;;2.30;;
41984;SDS011;28319;48.116;10.818;2022-11-14T04:41:52;1.97;;;1.87;;
41984;SDS011;28319;48.116;10.818;2022-11-14T04:46:54;2.10;;;2.00;;
41984;SDS011;28319;48.116;10.818;2022-11-14T04:51:58;2.13;;;2.03;;
41984;SDS011;28319;48.116;10.818;2022-11-14T04:57:00;2.33;;;2.13;;
41984;SDS011;28319;48.116;10.818;2022-11-14T05:02:02;2.30;;;2.10;;
41984;SDS011;28319;48.116;10.818;2022-11-14T05:07:06;2.00;;;1.90;;
41984;SDS011;28319;48.116;10.818;2022-11-14T05:12:08;2.10;;;2.00;;
41984;SDS011;28319;48.116;10.818;2022-11-14T05:17:10;2.13;;;2.03;;
41984;SDS011;28319;48.116;10.818;2022-11-14T05:22:14;1.77;;;1.67;;
41984;SDS011;28319;48.116;10.818;2022-11-14T05:27:16;2.10;;;2.00;;
41984;SDS011;28319;48.116;10.818;2022-11-14T05:32:18;2.07;;;1.97;;
41984;SDS011;28319;48.116;10.818;2022-11-14T05:37:21;1.80;;;1.70;;
41984;SDS011;28319;48.116;10.818;2022-11-14T05:42:23;2.00;;;1.90;;
41984;SDS011;28319;48.116;10.818;2022-11-14T05:47:27;2.30;;;2.10;;
41984;SDS011;28319;48.116;10.818;2022-11-14T05:52:31;6.00;;;4.67;;
41984;SDS011;28319;48.116;10.818;2022-11-14T05:57:33;2.73;;;2.50;;
41984;SDS011;28319;48.116;10.818;2022-11-14T06:02:36;2.60;;;2.40;;
41984;SDS011;28319;48.116;10.818;2022-11-14T06:07:39;2.80;;;2.50;;
41984;SDS011;28319;48.116;10.818;2022-11-14T06:12:41;2.63;;;2.40;;
41984;SDS011;28319;48.116;10.818;2022-11-14T06:17:43;2.53;;;2.33;;
41984;SDS011;28319;48.116;10.818;2022-11-14T06:22:47;2.60;;;2.40;;
41984;SDS011;28319;48.116;10.818;2022-11-14T06:27:49;2.33;;;2.13;;
41984;SDS011;28319;48.116;10.818;2022-11-14T06:32:55;2.60;;;2.40;;
41984;SDS011;28319;48.116;10.818;2022-11-14T06:37:59;2.60;;;2.40;;
41984;SDS011;28319;48.116;10.818;2022-11-14T06:43:01;2.47;;;2.27;;
41984;SDS011;28319;48.116;10.818;2022-11-14T06:48:04;8.33;;;4.87;;
41984;SDS011;28319;48.116;10.818;2022-11-14T06:53:07;5.43;;;4.43;;
41984;SDS011;28319;48.116;10.818;2022-11-14T06:58:09;2.87;;;2.40;;
41984;SDS011;28319;48.116;10.818;2022-11-14T07:03:11;3.43;;;2.60;;
41984;SDS011;28319;48.116;10.818;2022-11-14T07:08:15;2.43;;;2.23;;
41984;SDS011;28319;48.116;10.818;2022-11-14T07:13:17;1.97;;;1.87;;
41984;SDS011;28319;48.116;10.818;2022-11-14T07:18:20;2.40;;;2.20;;
41984;SDS011;28319;48.116;10.818;2022-11-14T07:23:23;2.37;;;2.17;;
41984;SDS011;28319;48.116;10.818;2022-11-14T07:28:25;2.30;;;2.10;;
41984;SDS011;28319;48.116;10.818;2022-11-14T07:33:28;2.40;;;2.20;;
41984;SDS011;28319;48.116;10.818;2022-11-14T07:38:32;3.17;;;2.87;;
41984;SDS011;28319;48.116;10.818;2022-11-14T07:43:35;4.33;;;3.40;;
41984;SDS011;28319;48.116;10.818;2022-11-14T07:48:37;4.80;;;3.27;;
41984;SDS011;28319;48.116;10.818;2022-11-14T07:53:42;4.50;;;2.90;;
41984;SDS011;28319;48.116;10.818;2022-11-14T07:58:44;6.13;;;4.07;;
41984;SDS011;28319;48.116;10.818;2022-11-14T08:03:46;4.50;;;3.90;;
41984;SDS011;28319;48.116;10.818;2022-11-14T08:08:50;5.40;;;4.37;;
41984;SDS011;28319;48.116;10.818;2022-11-14T08:13:51;5.33;;;4.73;;
41984;SDS011;28319;48.116;10.818;2022-11-14T08:18:53;7.93;;;4.90;;
41984;SDS011;28319;48.116;10.818;2022-11-14T08:23:57;4.60;;;4.00;;
41984;SDS011;28319;48.116;10.818;2022-11-14T08:29:00;3.30;;;3.00;;
41984;SDS011;28319;48.116;10.818;2022-11-14T08:34:02;3.30;;;3.00;;
41984;SDS011;28319;48.116;10.818;2022-11-14T08:39:06;3.90;;;2.43;;
41984;SDS011;28319;48.116;10.818;2022-11-14T08:44:08;3.80;;;2.67;;
41984;SDS011;28319;48.116;10.818;2022-11-14T08:49:10;4.00;;;2.67;;
41984;SDS011;28319;48.116;10.818;2022-11-14T08:54:13;4.43;;;2.53;;
41984;SDS011;28319;48.116;10.818;2022-11-14T08:59:15;3.87;;;2.50;;
41984;SDS011;28319;48.116;10.818;2022-11-14T09:04:17;3.10;;;2.77;;
41984;SDS011;28319;48.116;10.818;2022-11-14T09:09:21;3.40;;;3.03;;
41984;SDS011;28319;48.116;10.818;2022-11-14T09:14:23;3.40;;;3.10;;
41984;SDS011;28319;48.116;10.818;2022-11-14T09:19:25;3.63;;;3.23;;
41984;SDS011;28319;48.116;10.818;2022-11-14T09:24:28;4.03;;;2.87;;
41984;SDS011;28319;48.116;10.818;2022-11-14T09:29:30;3.50;;;3.20;;
41984;SDS011;28319;48.116;10.818;2022-11-14T09:34:32;3.50;;;3.20;;
41984;SDS011;28319;48.116;10.818;2022-11-14T09:39:37;3.40;;;3.10;;
41984;SDS011;28319;48.116;10.818;2022-11-14T09:44:47;3.03;;;2.77;;
41984;SDS011;28319;48.116;10.818;2022-11-14T09:49:55;2.77;;;2.57;;
41984;SDS011;28319;48.116;10.818;2022-11-14T09:55:09;12.20;;;7.70;;
41984;SDS011;28319;48.116;10.818;2022-11-14T10:00:13;4.10;;;3.50;;
41984;SDS011;28319;48.116;10.818;2022-11-14T10:05:21;3.60;;;3.30;;
41984;SDS011;28319;48.116;10.818;2022-11-14T10:10:40;3.80;;;3.23;;
41984;SDS011;28319;48.116;10.818;2022-11-14T10:15:50;3.70;;;3.40;;
41984;SDS011;28319;48.116;10.818;2022-11-14T10:20:57;4.53;;;3.10;;
41984;SDS011;28319;48.116;10.818;2022-11-14T10:26:10;4.43;;;2.90;;
41984;SDS011;28319;48.116;10.818;2022-11-14T10:31:22;5.47;;;3.30;;
41984;SDS011;28319;48.116;10.818;2022-11-14T10:36:40;3.60;;;3.07;;
41984;SDS011;28319;48.116;10.818;2022-11-14T10:41:51;3.50;;;3.20;;
41984;SDS011;28319;48.116;10.818;2022-11-14T10:46:57;3.73;;;2.93;;
41984;SDS011;28319;48.116;10.818;2022-11-14T10:52:05;3.03;;;2.83;;
41984;SDS011;28319;48.116;10.818;2022-11-14T10:57:15;3.77;;;3.30;;
41984;SDS011;28319;48.116;10.818;2022-11-14T11:02:18;4.80;;;3.50;;
41984;SDS011;28319;48.116;10.818;2022-11-14T11:07:22;3.80;;;3.50;;
41984;SDS011;28319;48.116;10.818;2022-11-14T11:12:45;4.23;;;3.43;;
41984;SDS011;28319;48.116;10.818;2022-11-14T11:17:55;3.63;;;3.33;;
41984;SDS011;28319;48.116;10.818;2022-11-14T11:23:01;5.17;;;3.50;;
41984;SDS011;28319;48.116;10.818;2022-11-14T11:28:09;4.03;;;3.63;;
41984;SDS011;28319;48.116;10.818;2022-11-14T11:33:13;3.53;;;3.22;;
41984;SDS011;28319;48.116;10.818;2022-11-14T11:38:16;3.58;;;2.88;;
41984;SDS011;28319;48.116;10.818;2022-11-14T11:43:25;4.85;;;3.05;;
41984;SDS011;28319;48.116;10.818;2022-11-14T11:48:33;2.80;;;2.60;;
41984;SDS011;28319;48.116;10.818;2022-11-14T11:53:40;6.57;;;3.00;;
41984;SDS011;28319;48.116;10.818;2022-11-14T11:58:46;3.53;;;3.23;;
41984;SDS011;28319;48.116;10.818;2022-11-14T12:03:51;5.53;;;2.77;;
41984;SDS011;28319;48.116;10.818;2022-11-14T12:08:58;2.30;;;2.20;;
41984;SDS011;28319;48.116;10.818;2022-11-14T12:19:53;1.80;;;1.70;;
41984;SDS011;28319;48.116;10.818;2022-11-14T12:30:46;2.10;;;2.00;;
41984;SDS011;28319;48.116;10.818;2022-11-14T12:35:53;1.90;;;1.80;;
41984;SDS011;28319;48.116;10.818;2022-11-14T12:40:58;1.93;;;1.80;;
41984;SDS011;28319;48.116;10.818;2022-11-14T12:46:03;2.30;;;2.03;;
41984;SDS011;28319;48.116;10.818;2022-11-14T13:07:42;2.23;;;2.03;;
41984;SDS011;28319;48.116;10.818;2022-11-14T13:13:01;1.57;;;1.47;;
41984;SDS011;28319;48.116;10.818;2022-11-14T13:18:24;1.27;;;1.27;;
41984;SDS011;28319;48.116;10.818;2022-11-14T13:23:54;2.10;;;1.07;;
41984;SDS011;28319;48.116;10.818;2022-11-14T13:28:58;1.07;;;1.07;;
41984;SDS011;28319;48.116;10.818;2022-11-14T13:34:00;1.10;;;1.10;;
41984;SDS011;28319;48.116;10.818;2022-11-14T13:39:33;1.50;;;1.40;;
41984;SDS011;28319;48.116;10.818;2022-11-14T13:44:54;1.20;;;1.20;;
41984;SDS011;28319;48.116;10.818;2022-11-14T13:50:14;1.20;;;1.10;;
41984;SDS011;28319;48.116;10.818;2022-11-14T13:55:19;1.00;;;1.00;;
41984;SDS011;28319;48.116;10.818;2022-11-14T14:00:24;1.50;;;1.40;;
41984;SDS011;28319;48.116;10.818;2022-11-14T14:05:31;1.57;;;1.47;;
41984;SDS011;28319;48.116;10.818;2022-11-14T14:10:49;1.97;;;1.87;;
41984;SDS011;28319;48.116;10.818;2022-11-14T14:16:01;3.13;;;2.20;;
41984;SDS011;28319;48.116;10.818;2022-11-14T14:21:09;2.03;;;1.70;;
41984;SDS011;28319;48.116;10.818;2022-11-14T14:26:20;2.80;;;2.13;;
41984;SDS011;28319;48.116;10.818;2022-11-14T14:31:32;3.13;;;2.00;;
41984;SDS011;28319;48.116;10.818;2022-11-14T14:36:37;2.07;;;1.97;;
41984;SDS011;28319;48.116;10.818;2022-11-14T14:41:50;2.40;;;2.00;;
41984;SDS011;28319;48.116;10.818;2022-11-14T14:46:55;1.70;;;1.57;;
41984;SDS011;28319;48.116;10.818;2022-11-14T14:51:58;1.40;;;1.30;;
41984;SDS011;28319;48.116;10.818;2022-11-14T14:57:00;3.20;;;1.60;;
41984;SDS011;28319;48.116;10.818;2022-11-14T15:02:07;2.17;;;2.07;;
41984;SDS011;28319;48.116;10.818;2022-11-14T15:07:17;3.00;;;1.37;;
41984;SDS011;28319;48.116;10.818;2022-11-14T15:12:22;1.80;;;1.70;;
41984;SDS011;28319;48.116;10.818;2022-11-14T15:17:28;1.93;;;1.60;;
41984;SDS011;28319;48.116;10.818;2022-11-14T15:22:30;2.23;;;1.70;;
41984;SDS011;28319;48.116;10.818;2022-11-14T15:27:32;1.70;;;1.60;;
41984;SDS011;28319;48.116;10.818;2022-11-14T15:32:48;5.73;;;2.20;;
41984;SDS011;28319;48.116;10.818;2022-11-14T15:38:04;4.27;;;1.90;;
41984;SDS011;28319;48.116;10.818;2022-11-14T15:48:48;2.00;;;1.80;;
41984;SDS011;28319;48.116;10.818;2022-11-14T15:53:50;3.10;;;2.80;;
41984;SDS011;28319;48.116;10.818;2022-11-14T15:58:53;1.80;;;1.70;;
41984;SDS011;28319;48.116;10.818;2022-11-14T16:03:57;4.33;;;2.10;;
41984;SDS011;28319;48.116;10.818;2022-11-14T16:09:00;4.47;;;1.87;;
41984;SDS011;28319;48.116;10.818;2022-11-14T16:14:03;3.00;;;1.87;;
41984;SDS011;28319;48.116;10.818;2022-11-14T16:19:06;2.40;;;1.80;;
41984;SDS011;28319;48.116;10.818;2022-11-14T16:24:12;2.50;;;2.30;;
41984;SDS011;28319;48.116;10.818;2022-11-14T16:29:16;1.90;;;1.67;;
41984;SDS011;28319;48.116;10.818;2022-11-14T16:34:21;1.70;;;1.60;;
41984;SDS011;28319;48.116;10.818;2022-11-14T16:39:24;1.87;;;1.77;;
41984;SDS011;28319;48.116;10.818;2022-11-14T16:44:26;2.20;;;2.00;;
41984;SDS011;28319;48.116;10.818;2022-11-14T16:49:30;1.70;;;1.60;;
41984;SDS011;28319;48.116;10.818;2022-11-14T16:54:32;3.87;;;2.50;;
41984;SDS011;28319;48.116;10.818;2022-11-14T16:59:34;11.93;;;6.93;;
41984;SDS011;28319;48.116;10.818;2022-11-14T17:04:37;3.03;;;2.60;;
41984;SDS011;28319;48.116;10.818;2022-11-14T17:09:41;3.07;;;2.63;;
41984;SDS011;28319;48.116;10.818;2022-11-14T17:14:43;3.90;;;2.70;;
41984;SDS011;28319;48.116;10.818;2022-11-14T17:19:46;4.60;;;2.90;;
41984;SDS011;28319;48.116;10.818;2022-11-14T17:24:49;3.37;;;2.20;;
41984;SDS011;28319;48.116;10.818;2022-11-14T17:29:50;4.03;;;3.10;;
41984;SDS011;28319;48.116;10.818;2022-11-14T17:34:54;2.70;;;2.50;;
41984;SDS011;28319;48.116;10.818;2022-11-14T17:39:57;4.27;;;2.70;;
41984;SDS011;28319;48.116;10.818;2022-11-14T17:44:58;10.27;;;5.23;;
41984;SDS011;28319;48.116;10.818;2022-11-14T17:50:02;4.73;;;3.80;;
41984;SDS011;28319;48.116;10.818;2022-11-14T17:55:05;4.33;;;3.80;;
41984;SDS011;28319;48.116;10.818;2022-11-14T18:00:08;4.27;;;3.10;;
41984;SDS011;28319;48.116;10.818;2022-11-14T18:05:12;8.97;;;5.10;;
41984;SDS011;28319;48.116;10.818;2022-11-14T18:10:14;11.60;;;7.93;;
41984;SDS011;28319;48.116;10.818;2022-11-14T18:15:17;7.90;;;5.30;;
41984;SDS011;28319;48.116;10.818;2022-11-14T18:20:20;9.40;;;6.00;;
41984;SDS011;28319;48.116;10.818;2022-11-14T18:25:22;5.53;;;4.13;;
41984;SDS011;28319;48.116;10.818;2022-11-14T18:30:24;4.40;;;3.80;;
41984;SDS011;28319;48.116;10.818;2022-11-14T18:35:28;4.07;;;3.33;;
41984;SDS011;28319;48.116;10.818;2022-11-14T18:40:30;5.93;;;3.60;;
41984;SDS011;28319;48.116;10.818;2022-11-14T18:45:33;5.87;;;3.90;;
41984;SDS011;28319;48.116;10.818;2022-11-14T18:50:36;4.07;;;3.67;;
41984;SDS011;28319;48.116;10.818;2022-11-14T18:55:39;4.00;;;3.60;;
41984;SDS011;28319;48.116;10.818;2022-11-14T19:00:41;4.97;;;3.80;;
41984;SDS011;28319;48.116;10.818;2022-11-14T19:05:45;4.23;;;3.57;;
41984;SDS011;28319;48.116;10.818;2022-11-14T19:10:47;4.27;;;3.50;;
41984;SDS011;28319;48.116;10.818;2022-11-14T19:15:49;4.20;;;3.80;;
41984;SDS011;28319;48.116;10.818;2022-11-14T19:20:56;3.47;;;3.17;;
41984;SDS011;28319;48.116;10.818;2022-11-14T19:25:58;6.33;;;4.77;;
41984;SDS011;28319;48.116;10.818;2022-11-14T19:31:01;14.43;;;6.50;;
41984;SDS011;28319;48.116;10.818;2022-11-14T19:36:05;8.80;;;5.40;;
41984;SDS011;28319;48.116;10.818;2022-11-14T19:41:10;4.63;;;3.60;;
41984;SDS011;28319;48.116;10.818;2022-11-14T19:46:14;6.33;;;3.90;;
41984;SDS011;28319;48.116;10.818;2022-11-14T19:51:18;4.67;;;4.03;;
41984;SDS011;28319;48.116;10.818;2022-11-14T19:56:21;3.90;;;3.40;;
41984;SDS011;28319;48.116;10.818;2022-11-14T20:01:24;5.27;;;3.43;;
41984;SDS011;28319;48.116;10.818;2022-11-14T20:06:29;3.80;;;3.50;;
41984;SDS011;28319;48.116;10.818;2022-11-14T20:11:33;4.47;;;3.50;;
41984;SDS011;28319;48.116;10.818;2022-11-14T20:16:35;4.53;;;3.33;;
41984;SDS011;28319;48.116;10.818;2022-11-14T20:21:39;3.07;;;2.83;;
41984;SDS011;28319;48.116;10.818;2022-11-14T20:26:42;4.10;;;3.23;;
41984;SDS011;28319;48.116;10.818;2022-11-14T20:31:45;3.87;;;3.53;;
41984;SDS011;28319;48.116;10.818;2022-11-14T20:36:48;5.77;;;4.00;;
41984;SDS011;28319;48.116;10.818;2022-11-14T20:41:50;4.10;;;3.37;;
41984;SDS011;28319;48.116;10.818;2022-11-14T20:46:52;3.53;;;3.13;;
41984;SDS011;28319;48.116;10.818;2022-11-14T20:51:57;4.23;;;3.50;;
41984;SDS011;28319;48.116;10.818;2022-11-14T20:57:00;3.97;;;3.00;;
41984;SDS011;28319;48.116;10.818;2022-11-14T21:02:03;3.63;;;3.10;;
41984;SDS011;28319;48.116;10.818;2022-11-14T21:07:06;3.43;;;3.00;;
41984;SDS011;28319;48.116;10.818;2022-11-14T21:12:08;3.13;;;2.77;;
41984;SDS011;28319;48.116;10.818;2022-11-14T21:17:10;4.73;;;3.37;;
41984;SDS011;28319;48.116;10.818;2022-11-14T21:22:13;6.37;;;3.23;;
41984;SDS011;28319;48.116;10.818;2022-11-14T21:27:15;5.57;;;2.80;;
41984;SDS011;28319;48.116;10.818;2022-11-14T21:32:17;4.90;;;2.83;;
41984;SDS011;28319;48.116;10.818;2022-11-14T21:37:21;2.80;;;2.60;;
41984;SDS011;28319;48.116;10.818;2022-11-14T21:42:23;2.80;;;2.50;;
41984;SDS011;28319;48.116;10.818;2022-11-14T21:47:26;5.30;;;2.57;;
41984;SDS011;28319;48.116;10.818;2022-11-14T21:52:29;3.20;;;2.90;;
41984;SDS011;28319;48.116;10.818;2022-11-14T21:57:32;4.10;;;2.93;;
41984;SDS011;28319;48.116;10.818;2022-11-14T22:02:34;3.23;;;2.93;;
41984;SDS011;28319;48.116;10.818;2022-11-14T22:07:55;3.73;;;2.70;;
41984;SDS011;28319;48.116;10.818;2022-11-14T22:12:57;2.63;;;2.43;;
41984;SDS011;28319;48.116;10.818;2022-11-14T22:17:59;3.10;;;2.80;;
41984;SDS011;28319;48.116;10.818;2022-11-14T22:23:03;3.10;;;2.80;;
41984;SDS011;28319;48.116;10.818;2022-11-14T22:28:05;3.00;;;2.63;;
41984;SDS011;28319;48.116;10.818;2022-11-14T22:33:07;3.80;;;2.97;;
41984;SDS011;28319;48.116;10.818;2022-11-14T22:38:11;2.73;;;2.40;;
41984;SDS011;28319;48.116;10.818;2022-11-14T22:43:13;3.30;;;3.00;;
41984;SDS011;28319;48.116;10.818;2022-11-14T22:48:15;3.07;;;2.77;;
41984;SDS011;28319;48.116;10.818;2022-11-14T22:53:18;3.43;;;3.10;;
41984;SDS011;28319;48.116;10.818;2022-11-14T22:58:20;2.80;;;2.53;;
41984;SDS011;28319;48.116;10.818;2022-11-14T23:03:22;3.13;;;2.83;;
41984;SDS011;28319;48.116;10.818;2022-11-14T23:08:26;3.17;;;2.93;;
41984;SDS011;28319;48.116;10.818;2022-11-14T23:13:28;4.40;;;3.30;;
41984;SDS011;28319;48.116;10.818;2022-11-14T23:18:30;4.37;;;3.60;;
41984;SDS011;28319;48.116;10.818;2022-11-14T23:23:34;5.53;;;2.93;;
41984;SDS011;28319;48.116;10.818;2022-11-14T23:28:36;3.63;;;3.10;;
41984;SDS011;28319;48.116;10.818;2022-11-14T23:33:38;3.93;;;3.27;;
41984;SDS011;28319;48.116;10.818;2022-11-14T23:38:42;3.30;;;2.93;;
41984;SDS011;28319;48.116;10.818;2022-11-14T23:43:44;3.10;;;2.80;;
41984;SDS011;28319;48.116;10.818;2022-11-14T23:48:46;3.00;;;2.80;;
41984;SDS011;28319;48.116;10.818;2022-11-14T23:53:51;3.93;;;2.90;;
41984;SDS011;28319;48.116;10.818;2022-11-14T23:58:53;3.83;;;3.23;;
